sensor_id;sensor_type;location;lat;lon;timestamp;pressure;altitude;pressure_sealevel;temperature;humidity
10832;BME280;5469;48.574;8.768;2023-01-28T00:01:37;95284.31;;;0.18;81.39
10832;BME280;5469;48.574;8.768;2023-01-28T00:04:10;95287.53;;;0.20;81.64
10832;BME280;5469;48.574;8.768;2023-01-28T00:06:44;95288.56;;;0.19;81.49
10832;BME280;5469;48.574;8.768;2023-01-28T00:09:17;95282.69;;;0.04;81.59
10832;BME280;5469;48.574;8.768;2023-01-28T00:11:51;95275.09;;;0.09;81.30
10832;BME280;5469;48.574;8.768;2023-01-28T00:14:24;95275.09;;;0.15;81.60
10832;BME280;5469;48.574;8.768;2023-01-28T00:16:59;95282.00;;;0.36;80.59
10832;BME280;5469;48.574;8.768;2023-01-28T00:19:33;95275.44;;;-0.08;81.25
10832;BME280;5469;48.574;8.768;2023-01-28T00:22:06;95272.69;;;0.14;81.39
10832;BME280;5469;48.574;8.768;2023-01-28T00:24:40;95277.00;;;-0.13;82.42
10832;BME280;5469;48.574;8.768;2023-01-28T00:27:13;95272.25;;;0.04;81.69
10832;BME280;5469;48.574;8.768;2023-01-28T00:29:47;95275.94;;;0.29;81.19
10832;BME280;5469;48.574;8.768;2023-01-28T00:32:21;95278.31;;;0.11;81.25
10832;BME280;5469;48.574;8.768;2023-01-28T00:34:55;95275.09;;;0.09;80.69
10832;BME280;5469;48.574;8.768;2023-01-28T00:37:30;95273.09;;;0.11;80.98
10832;BME280;5469;48.574;8.768;2023-01-28T00:40:03;95281.56;;;0.26;79.62
10832;BME280;5469;48.574;8.768;2023-01-28T00:42:37;95269.50;;;0.25;81.14
10832;BME280;5469;48.574;8.768;2023-01-28T00:45:10;95276.50;;;0.11;81.20
10832;BME280;5469;48.574;8.768;2023-01-28T00:47:45;95273.09;;;0.11;81.05
10832;BME280;5469;48.574;8.768;2023-01-28T00:50:19;95273.84;;;0.05;81.30
10832;BME280;5469;48.574;8.768;2023-01-28T00:52:53;95275.44;;;-0.08;82.17
10832;BME280;5469;48.574;8.768;2023-01-28T00:55:26;95272.03;;;0.05;81.39
10832;BME280;5469;48.574;8.768;2023-01-28T00:58:00;95272.69;;;0.20;81.25
10832;BME280;5469;48.574;8.768;2023-01-28T01:00:33;95266.59;;;-0.07;81.28
10832;BME280;5469;48.574;8.768;2023-01-28T01:03:08;95262.28;;;0.20;81.04
10832;BME280;5469;48.574;8.768;2023-01-28T01:05:41;95261.84;;;0.04;80.90
10832;BME280;5469;48.574;8.768;2023-01-28T01:08:15;95263.81;;;0.02;81.62
10832;BME280;5469;48.574;8.768;2023-01-28T01:10:48;95265.28;;;0.11;81.27
10832;BME280;5469;48.574;8.768;2023-01-28T01:13:21;95270.63;;;-0.04;81.96
10832;BME280;5469;48.574;8.768;2023-01-28T01:16:02;95269.00;;;-0.12;81.42
10832;BME280;5469;48.574;8.768;2023-01-28T01:18:38;95269.47;;;0.12;81.63
10832;BME280;5469;48.574;8.768;2023-01-28T01:21:14;95264.91;;;0.27;80.72
10832;BME280;5469;48.574;8.768;2023-01-28T01:23:48;95277.91;;;0.14;80.62
10832;BME280;5469;48.574;8.768;2023-01-28T01:26:22;95266.59;;;-0.07;81.97
10832;BME280;5469;48.574;8.768;2023-01-28T01:28:56;95268.69;;;0.18;81.13
10832;BME280;5469;48.574;8.768;2023-01-28T01:31:29;95282.91;;;0.09;81.73
10832;BME280;5469;48.574;8.768;2023-01-28T01:34:04;95277.06;;;0.07;80.59
10832;BME280;5469;48.574;8.768;2023-01-28T01:36:37;95279.94;;;0.18;81.17
10832;BME280;5469;48.574;8.768;2023-01-28T01:39:11;95276.53;;;0.25;80.00
10832;BME280;5469;48.574;8.768;2023-01-28T01:41:45;95277.72;;;0.22;81.39
10832;BME280;5469;48.574;8.768;2023-01-28T01:47:39;95286.34;;;0.16;80.68
10832;BME280;5469;48.574;8.768;2023-01-28T01:50:22;95281.13;;;0.16;81.06
10832;BME280;5469;48.574;8.768;2023-01-28T01:53:00;95289.56;;;0.25;80.92
10832;BME280;5469;48.574;8.768;2023-01-28T01:55:36;95283.78;;;0.29;80.33
10832;BME280;5469;48.574;8.768;2023-01-28T01:58:15;95290.75;;;0.22;80.07
10832;BME280;5469;48.574;8.768;2023-01-28T02:00:48;95284.41;;;0.45;80.67
10832;BME280;5469;48.574;8.768;2023-01-28T02:03:27;95282.91;;;0.09;81.97
10832;BME280;5469;48.574;8.768;2023-01-28T02:06:02;95283.13;;;0.14;81.88
10832;BME280;5469;48.574;8.768;2023-01-28T02:08:35;95283.47;;;-0.03;82.01
10832;BME280;5469;48.574;8.768;2023-01-28T02:11:09;95285.06;;;-0.02;82.03
10832;BME280;5469;48.574;8.768;2023-01-28T02:13:48;95287.97;;;0.30;82.28
10832;BME280;5469;48.574;8.768;2023-01-28T02:16:23;95280.16;;;0.24;82.41
10832;BME280;5469;48.574;8.768;2023-01-28T02:18:58;95288.78;;;0.24;82.00
10832;BME280;5469;48.574;8.768;2023-01-28T02:22:00;95283.56;;;0.24;82.13
10832;BME280;5469;48.574;8.768;2023-01-28T02:25:06;95286.81;;;0.53;81.02
10832;BME280;5469;48.574;8.768;2023-01-28T02:28:09;95292.75;;;0.20;81.18
10832;BME280;5469;48.574;8.768;2023-01-28T02:30:51;95290.72;;;0.09;83.04
10832;BME280;5469;48.574;8.768;2023-01-28T02:33:32;95291.56;;;0.16;82.58
10832;BME280;5469;48.574;8.768;2023-01-28T02:36:16;95286.78;;;0.26;81.65
10832;BME280;5469;48.574;8.768;2023-01-28T02:38:52;95294.19;;;0.29;81.32
10832;BME280;5469;48.574;8.768;2023-01-28T02:41:30;95290.56;;;0.30;81.74
10832;BME280;5469;48.574;8.768;2023-01-28T02:44:06;95294.97;;;0.23;82.37
10832;BME280;5469;48.574;8.768;2023-01-28T02:46:39;95286.13;;;0.11;82.36
10832;BME280;5469;48.574;8.768;2023-01-28T02:49:34;95294.84;;;0.45;81.53
10832;BME280;5469;48.574;8.768;2023-01-28T02:52:21;95289.41;;;0.39;81.21
10832;BME280;5469;48.574;8.768;2023-01-28T02:55:17;95293.16;;;0.17;82.53
10832;BME280;5469;48.574;8.768;2023-01-28T02:57:59;95296.41;;;0.39;81.17
10832;BME280;5469;48.574;8.768;2023-01-28T03:00:45;95298.81;;;0.34;80.96
10832;BME280;5469;48.574;8.768;2023-01-28T03:03:25;95299.00;;;0.39;81.85
10832;BME280;5469;48.574;8.768;2023-01-28T03:06:04;95303.56;;;0.17;82.27
10832;BME280;5469;48.574;8.768;2023-01-28T03:08:43;95302.81;;;0.30;81.34
10832;BME280;5469;48.574;8.768;2023-01-28T03:11:39;95310.81;;;0.28;81.89
10832;BME280;5469;48.574;8.768;2023-01-28T03:14:32;95308.06;;;0.36;81.70
10832;BME280;5469;48.574;8.768;2023-01-28T03:17:29;95296.31;;;0.06;83.15
10832;BME280;5469;48.574;8.768;2023-01-28T03:20:24;95302.78;;;0.23;82.56
10832;BME280;5469;48.574;8.768;2023-01-28T03:23:21;95299.66;;;0.48;82.43
10832;BME280;5469;48.574;8.768;2023-01-28T03:26:12;95310.66;;;0.36;82.28
10832;BME280;5469;48.574;8.768;2023-01-28T03:29:07;95306.75;;;0.06;83.08
10832;BME280;5469;48.574;8.768;2023-01-28T03:31:59;95307.13;;;0.03;83.99
10832;BME280;5469;48.574;8.768;2023-01-28T03:34:52;95312.88;;;0.39;83.21
10832;BME280;5469;48.574;8.768;2023-01-28T03:37:43;95311.63;;;0.22;82.20
10832;BME280;5469;48.574;8.768;2023-01-28T03:40:17;95305.25;;;0.31;81.89
10832;BME280;5469;48.574;8.768;2023-01-28T03:42:50;95305.69;;;0.55;81.72
10832;BME280;5469;48.574;8.768;2023-01-28T03:45:25;95308.06;;;0.36;82.93
10832;BME280;5469;48.574;8.768;2023-01-28T03:47:58;95316.53;;;0.58;81.57
10832;BME280;5469;48.574;8.768;2023-01-28T03:50:33;95308.88;;;0.43;81.63
10832;BME280;5469;48.574;8.768;2023-01-28T03:53:06;95309.84;;;0.29;82.47
10832;BME280;5469;48.574;8.768;2023-01-28T03:55:46;95322.38;;;0.06;84.02
10832;BME280;5469;48.574;8.768;2023-01-28T03:58:21;95318.66;;;0.28;82.89
10832;BME280;5469;48.574;8.768;2023-01-28T04:00:58;95311.97;;;0.12;83.76
10832;BME280;5469;48.574;8.768;2023-01-28T04:03:31;95319.16;;;0.04;84.74
10832;BME280;5469;48.574;8.768;2023-01-28T04:06:07;95320.47;;;0.34;82.85
10832;BME280;5469;48.574;8.768;2023-01-28T04:08:41;95313.16;;;0.10;83.88
10832;BME280;5469;48.574;8.768;2023-01-28T04:11:19;95321.16;;;0.02;84.43
10832;BME280;5469;48.574;8.768;2023-01-28T04:13:56;95313.59;;;0.20;84.84
10832;BME280;5469;48.574;8.768;2023-01-28T04:16:29;95310.09;;;0.48;82.52
10832;BME280;5469;48.574;8.768;2023-01-28T04:19:03;95316.91;;;0.42;82.63
10832;BME280;5469;48.574;8.768;2023-01-28T04:21:38;95310.50;;;0.45;82.85
10832;BME280;5469;48.574;8.768;2023-01-28T04:24:11;95316.25;;;0.33;83.35
10832;BME280;5469;48.574;8.768;2023-01-28T04:26:44;95318.81;;;0.20;84.54
10832;BME280;5469;48.574;8.768;2023-01-28T04:29:18;95326.47;;;0.21;84.11
10832;BME280;5469;48.574;8.768;2023-01-28T04:31:51;95331.72;;;0.41;83.89
10832;BME280;5469;48.574;8.768;2023-01-28T04:34:25;95342.50;;;0.25;84.43
10832;BME280;5469;48.574;8.768;2023-01-28T04:36:59;95333.25;;;0.16;84.70
10832;BME280;5469;48.574;8.768;2023-01-28T04:39:33;95341.06;;;0.16;85.52
10832;BME280;5469;48.574;8.768;2023-01-28T04:42:06;95345.53;;;0.35;84.83
10832;BME280;5469;48.574;8.768;2023-01-28T04:44:40;95334.06;;;0.23;85.07
10832;BME280;5469;48.574;8.768;2023-01-28T04:47:13;95339.22;;;0.10;85.74
10832;BME280;5469;48.574;8.768;2023-01-28T04:49:46;95337.69;;;0.22;85.11
10832;BME280;5469;48.574;8.768;2023-01-28T04:52:21;95348.16;;;0.35;85.27
10832;BME280;5469;48.574;8.768;2023-01-28T04:54:55;95347.75;;;0.38;84.36
10832;BME280;5469;48.574;8.768;2023-01-28T04:57:28;95348.63;;;0.59;83.52
10832;BME280;5469;48.574;8.768;2023-01-28T05:00:03;95350.63;;;0.57;83.36
10832;BME280;5469;48.574;8.768;2023-01-28T05:02:36;95353.00;;;0.52;84.28
10832;BME280;5469;48.574;8.768;2023-01-28T05:05:10;95360.84;;;0.52;84.29
10832;BME280;5469;48.574;8.768;2023-01-28T05:07:49;95350.97;;;0.40;84.41
10832;BME280;5469;48.574;8.768;2023-01-28T05:10:25;95354.00;;;0.44;84.40
10832;BME280;5469;48.574;8.768;2023-01-28T05:12:58;95359.59;;;0.41;84.19
10832;BME280;5469;48.574;8.768;2023-01-28T05:15:32;95365.03;;;0.39;84.46
10832;BME280;5469;48.574;8.768;2023-01-28T05:18:05;95358.41;;;0.43;84.73
10832;BME280;5469;48.574;8.768;2023-01-28T05:20:38;95359.41;;;0.42;85.21
10832;BME280;5469;48.574;8.768;2023-01-28T05:23:13;95359.69;;;0.13;85.72
10832;BME280;5469;48.574;8.768;2023-01-28T05:25:46;95358.19;;;0.38;84.57
10832;BME280;5469;48.574;8.768;2023-01-28T05:28:20;95358.53;;;0.22;86.03
10832;BME280;5469;48.574;8.768;2023-01-28T05:30:53;95362.94;;;0.21;85.91
10832;BME280;5469;48.574;8.768;2023-01-28T05:33:27;95367.81;;;0.31;85.03
10832;BME280;5469;48.574;8.768;2023-01-28T05:36:00;95357.03;;;0.48;85.05
10832;BME280;5469;48.574;8.768;2023-01-28T05:38:35;95368.22;;;0.41;85.33
10832;BME280;5469;48.574;8.768;2023-01-28T05:41:08;95365.03;;;0.39;85.17
10832;BME280;5469;48.574;8.768;2023-01-28T05:43:42;95364.63;;;0.49;84.99
10832;BME280;5469;48.574;8.768;2023-01-28T05:46:15;95362.25;;;0.48;84.72
10832;BME280;5469;48.574;8.768;2023-01-28T05:48:49;95363.41;;;0.38;85.37
10832;BME280;5469;48.574;8.768;2023-01-28T05:51:22;95363.41;;;0.38;84.77
10832;BME280;5469;48.574;8.768;2023-01-28T05:53:57;95369.09;;;0.55;84.29
10832;BME280;5469;48.574;8.768;2023-01-28T05:56:30;95380.50;;;0.48;84.26
10832;BME280;5469;48.574;8.768;2023-01-28T05:59:04;95376.69;;;0.57;84.25
10832;BME280;5469;48.574;8.768;2023-01-28T06:01:38;95385.88;;;0.39;84.89
10832;BME280;5469;48.574;8.768;2023-01-28T06:04:11;95386.66;;;0.33;85.74
10832;BME280;5469;48.574;8.768;2023-01-28T06:06:45;95381.91;;;0.50;84.94
10832;BME280;5469;48.574;8.768;2023-01-28T06:09:20;95387.94;;;0.51;84.60
10832;BME280;5469;48.574;8.768;2023-01-28T06:11:53;95386.03;;;0.25;85.87
10832;BME280;5469;48.574;8.768;2023-01-28T06:14:27;95397.81;;;0.14;86.29
10832;BME280;5469;48.574;8.768;2023-01-28T06:17:00;95399.31;;;0.36;85.62
10832;BME280;5469;48.574;8.768;2023-01-28T06:19:33;95393.09;;;0.44;85.58
10832;BME280;5469;48.574;8.768;2023-01-28T06:22:07;95400.75;;;0.46;84.62
10832;BME280;5469;48.574;8.768;2023-01-28T06:24:42;95390.03;;;0.27;84.82
10832;BME280;5469;48.574;8.768;2023-01-28T06:27:15;95399.16;;;0.45;85.68
10832;BME280;5469;48.574;8.768;2023-01-28T06:29:50;95405.47;;;0.22;85.80
10832;BME280;5469;48.574;8.768;2023-01-28T06:32:24;95402.22;;;0.20;85.70
10832;BME280;5469;48.574;8.768;2023-01-28T06:34:58;95409.81;;;0.50;84.50
10832;BME280;5469;48.574;8.768;2023-01-28T06:37:31;95409.81;;;0.15;85.67
10832;BME280;5469;48.574;8.768;2023-01-28T06:40:08;95417.88;;;0.20;86.22
10832;BME280;5469;48.574;8.768;2023-01-28T06:42:41;95425.16;;;0.31;85.07
10832;BME280;5469;48.574;8.768;2023-01-28T06:45:15;95415.94;;;0.29;85.16
10832;BME280;5469;48.574;8.768;2023-01-28T06:47:48;95429.56;;;0.31;85.12
10832;BME280;5469;48.574;8.768;2023-01-28T06:50:22;95430.88;;;0.55;84.52
10832;BME280;5469;48.574;8.768;2023-01-28T06:52:55;95427.22;;;0.42;84.20
10832;BME280;5469;48.574;8.768;2023-01-28T06:55:30;95428.00;;;0.43;84.15
10832;BME280;5469;48.574;8.768;2023-01-28T06:58:03;95439.69;;;0.54;83.75
10832;BME280;5469;48.574;8.768;2023-01-28T07:00:46;95438.09;;;0.53;83.53
10832;BME280;5469;48.574;8.768;2023-01-28T07:06:51;95424.84;;;0.48;84.13
10832;BME280;5469;48.574;8.768;2023-01-28T07:09:26;95446.09;;;0.45;84.40
10832;BME280;5469;48.574;8.768;2023-01-28T07:12:01;95438.50;;;0.50;83.84
10832;BME280;5469;48.574;8.768;2023-01-28T07:14:38;95434.66;;;0.46;83.76
10832;BME280;5469;48.574;8.768;2023-01-28T07:17:14;95433.63;;;0.47;84.92
10832;BME280;5469;48.574;8.768;2023-01-28T07:19:49;95447.63;;;0.32;85.13
10832;BME280;5469;48.574;8.768;2023-01-28T07:22:26;95446.16;;;0.64;83.95
10832;BME280;5469;48.574;8.768;2023-01-28T07:25:01;95446.75;;;0.60;83.67
10832;BME280;5469;48.574;8.768;2023-01-28T07:27:36;95439.75;;;0.60;83.74
10832;BME280;5469;48.574;8.768;2023-01-28T07:30:12;95447.69;;;0.46;84.70
10832;BME280;5469;48.574;8.768;2023-01-28T07:32:51;95454.81;;;0.65;83.97
10832;BME280;5469;48.574;8.768;2023-01-28T07:35:27;95457.03;;;0.68;83.93
10832;BME280;5469;48.574;8.768;2023-01-28T07:38:04;95454.19;;;0.63;84.08
10832;BME280;5469;48.574;8.768;2023-01-28T07:40:40;95456.81;;;0.63;83.78
10832;BME280;5469;48.574;8.768;2023-01-28T07:43:15;95448.22;;;0.82;83.39
10832;BME280;5469;48.574;8.768;2023-01-28T07:45:50;95457.25;;;0.73;84.14
10832;BME280;5469;48.574;8.768;2023-01-28T07:48:26;95452.84;;;0.39;85.95
10832;BME280;5469;48.574;8.768;2023-01-28T07:51:02;95458.03;;;0.74;83.90
10832;BME280;5469;48.574;8.768;2023-01-28T07:53:39;95463.16;;;0.54;84.06
10832;BME280;5469;48.574;8.768;2023-01-28T07:56:14;95448.88;;;0.36;84.74
10832;BME280;5469;48.574;8.768;2023-01-28T07:58:50;95455.41;;;0.67;84.11
10832;BME280;5469;48.574;8.768;2023-01-28T08:01:24;95475.13;;;0.76;83.73
10832;BME280;5469;48.574;8.768;2023-01-28T08:03:59;95472.69;;;0.68;83.32
10832;BME280;5469;48.574;8.768;2023-01-28T08:06:34;95476.94;;;0.82;83.37
10832;BME280;5469;48.574;8.768;2023-01-28T08:09:12;95477.91;;;0.68;83.95
10832;BME280;5469;48.574;8.768;2023-01-28T08:11:47;95485.81;;;0.95;83.22
10832;BME280;5469;48.574;8.768;2023-01-28T08:14:22;95482.38;;;0.81;83.72
10832;BME280;5469;48.574;8.768;2023-01-28T08:16:58;95476.38;;;0.94;82.61
10832;BME280;5469;48.574;8.768;2023-01-28T08:19:33;95486.69;;;0.67;84.23
10832;BME280;5469;48.574;8.768;2023-01-28T08:22:08;95479.97;;;0.93;83.69
10832;BME280;5469;48.574;8.768;2023-01-28T08:24:45;95481.94;;;0.77;83.46
10832;BME280;5469;48.574;8.768;2023-01-28T08:27:20;95481.97;;;0.91;84.05
10832;BME280;5469;48.574;8.768;2023-01-28T08:29:55;95488.47;;;1.08;82.59
10832;BME280;5469;48.574;8.768;2023-01-28T08:32:31;95498.47;;;0.98;83.66
10832;BME280;5469;48.574;8.768;2023-01-28T08:35:07;95496.09;;;1.03;83.69
10832;BME280;5469;48.574;8.768;2023-01-28T08:37:42;95492.09;;;1.07;83.50
10832;BME280;5469;48.574;8.768;2023-01-28T08:40:18;95489.66;;;0.99;83.27
10832;BME280;5469;48.574;8.768;2023-01-28T08:42:55;95501.56;;;0.67;84.53
10832;BME280;5469;48.574;8.768;2023-01-28T08:45:31;95501.69;;;1.00;83.62
10832;BME280;5469;48.574;8.768;2023-01-28T08:48:09;95504.19;;;1.35;82.43
10832;BME280;5469;48.574;8.768;2023-01-28T08:50:45;95501.41;;;1.36;82.67
10832;BME280;5469;48.574;8.768;2023-01-28T08:53:21;95504.56;;;1.18;82.66
10832;BME280;5469;48.574;8.768;2023-01-28T08:55:57;95500.00;;;1.47;82.68
10832;BME280;5469;48.574;8.768;2023-01-28T08:58:32;95509.06;;;1.58;81.58
10832;BME280;5469;48.574;8.768;2023-01-28T09:01:09;95504.63;;;1.58;81.28
10832;BME280;5469;48.574;8.768;2023-01-28T09:03:44;95513.44;;;1.30;82.01
10832;BME280;5469;48.574;8.768;2023-01-28T09:06:19;95508.22;;;1.37;82.04
10832;BME280;5469;48.574;8.768;2023-01-28T09:08:57;95513.63;;;1.22;82.29
10832;BME280;5469;48.574;8.768;2023-01-28T09:11:39;95512.44;;;1.25;81.74
10832;BME280;5469;48.574;8.768;2023-01-28T09:14:14;95511.03;;;1.36;81.39
10832;BME280;5469;48.574;8.768;2023-01-28T09:16:49;95506.66;;;1.49;81.71
10832;BME280;5469;48.574;8.768;2023-01-28T09:19:24;95517.88;;;1.30;82.76
10832;BME280;5469;48.574;8.768;2023-01-28T09:21:59;95510.25;;;1.35;82.43
10832;BME280;5469;48.574;8.768;2023-01-28T09:24:34;95515.88;;;1.39;81.95
10832;BME280;5469;48.574;8.768;2023-01-28T09:27:10;95515.91;;;1.45;81.83
10832;BME280;5469;48.574;8.768;2023-01-28T09:29:45;95517.91;;;1.50;82.58
10832;BME280;5469;48.574;8.768;2023-01-28T09:32:20;95527.59;;;1.83;80.66
10832;BME280;5469;48.574;8.768;2023-01-28T09:34:57;95524.38;;;1.74;80.58
10832;BME280;5469;48.574;8.768;2023-01-28T09:37:32;95519.13;;;1.54;81.09
10832;BME280;5469;48.574;8.768;2023-01-28T09:40:09;95530.75;;;1.45;80.75
10832;BME280;5469;48.574;8.768;2023-01-28T09:42:55;95534.22;;;1.59;80.13
10832;BME280;5469;48.574;8.768;2023-01-28T09:45:37;95538.81;;;1.57;80.55
10832;BME280;5469;48.574;8.768;2023-01-28T09:48:17;95539.22;;;1.60;81.09
10832;BME280;5469;48.574;8.768;2023-01-28T09:50:56;95540.06;;;1.74;80.07
10832;BME280;5469;48.574;8.768;2023-01-28T09:53:34;95532.00;;;1.62;79.22
10832;BME280;5469;48.574;8.768;2023-01-28T09:56:17;95539.88;;;1.82;79.77
10832;BME280;5469;48.574;8.768;2023-01-28T09:59:00;95540.06;;;1.94;79.50
10832;BME280;5469;48.574;8.768;2023-01-28T10:01:49;95541.06;;;1.80;79.89
10832;BME280;5469;48.574;8.768;2023-01-28T10:04:35;95547.91;;;1.94;79.63
10832;BME280;5469;48.574;8.768;2023-01-28T10:07:33;95548.53;;;2.16;78.89
10832;BME280;5469;48.574;8.768;2023-01-28T10:10:14;95546.09;;;2.01;78.87
10832;BME280;5469;48.574;8.768;2023-01-28T10:13:00;95539.47;;;1.85;78.84
10832;BME280;5469;48.574;8.768;2023-01-28T10:15:58;95538.88;;;2.03;79.04
10832;BME280;5469;48.574;8.768;2023-01-28T10:18:42;95538.88;;;2.03;78.69
10832;BME280;5469;48.574;8.768;2023-01-28T10:21:24;95537.66;;;1.86;79.15
10832;BME280;5469;48.574;8.768;2023-01-28T10:24:03;95536.22;;;2.43;78.30
10832;BME280;5469;48.574;8.768;2023-01-28T10:26:42;95528.41;;;2.16;77.95
10832;BME280;5469;48.574;8.768;2023-01-28T10:29:19;95538.47;;;2.06;77.66
10832;BME280;5469;48.574;8.768;2023-01-28T10:32:01;95518.94;;;2.09;78.18
10832;BME280;5469;48.574;8.768;2023-01-28T10:34:39;95517.94;;;2.16;77.79
10832;BME280;5469;48.574;8.768;2023-01-28T10:37:15;95515.44;;;2.61;76.68
10832;BME280;5469;48.574;8.768;2023-01-28T10:39:50;95530.13;;;2.69;76.72
10832;BME280;5469;48.574;8.768;2023-01-28T10:42:30;95523.69;;;2.78;75.55
10832;BME280;5469;48.574;8.768;2023-01-28T10:45:16;95523.78;;;2.32;75.80
10832;BME280;5469;48.574;8.768;2023-01-28T10:47:59;95517.91;;;2.50;76.68
10832;BME280;5469;48.574;8.768;2023-01-28T10:50:36;95515.88;;;2.58;75.82
10832;BME280;5469;48.574;8.768;2023-01-28T10:53:11;95527.16;;;2.52;75.97
10832;BME280;5469;48.574;8.768;2023-01-28T10:55:50;95519.88;;;2.68;75.33
10832;BME280;5469;48.574;8.768;2023-01-28T10:58:28;95529.53;;;2.74;76.02
10832;BME280;5469;48.574;8.768;2023-01-28T11:01:07;95525.91;;;2.61;74.29
10832;BME280;5469;48.574;8.768;2023-01-28T11:03:55;95526.72;;;2.69;74.69
10832;BME280;5469;48.574;8.768;2023-01-28T11:06:31;95527.97;;;2.53;76.08
10832;BME280;5469;48.574;8.768;2023-01-28T11:09:19;95533.22;;;1.93;75.38
10832;BME280;5469;48.574;8.768;2023-01-28T11:11:55;95529.22;;;2.24;76.57
10832;BME280;5469;48.574;8.768;2023-01-28T11:14:31;95534.03;;;2.27;75.81
10832;BME280;5469;48.574;8.768;2023-01-28T11:17:15;95521.56;;;2.29;77.12
10832;BME280;5469;48.574;8.768;2023-01-28T11:19:52;95534.41;;;2.30;76.13
10832;BME280;5469;48.574;8.768;2023-01-28T11:22:34;95528.81;;;2.27;76.37
10832;BME280;5469;48.574;8.768;2023-01-28T11:25:17;95529.59;;;2.27;74.59
10832;BME280;5469;48.574;8.768;2023-01-28T11:27:55;95523.38;;;3.06;75.30
10832;BME280;5469;48.574;8.768;2023-01-28T11:30:34;95528.31;;;2.70;75.77
10832;BME280;5469;48.574;8.768;2023-01-28T11:33:17;95519.00;;;2.87;75.08
10832;BME280;5469;48.574;8.768;2023-01-28T11:35:56;95527.59;;;3.14;73.81
10832;BME280;5469;48.574;8.768;2023-01-28T11:38:32;95527.00;;;3.05;74.68
10832;BME280;5469;48.574;8.768;2023-01-28T11:41:16;95529.56;;;2.60;74.58
10832;BME280;5469;48.574;8.768;2023-01-28T11:43:53;95526.22;;;2.98;74.99
10832;BME280;5469;48.574;8.768;2023-01-28T11:46:48;95516.34;;;3.45;74.32
10832;BME280;5469;48.574;8.768;2023-01-28T11:49:36;95522.75;;;3.49;73.06
10832;BME280;5469;48.574;8.768;2023-01-28T11:52:20;95528.06;;;3.36;74.09
10832;BME280;5469;48.574;8.768;2023-01-28T11:55:04;95521.03;;;2.85;75.59
10832;BME280;5469;48.574;8.768;2023-01-28T11:57:55;95515.75;;;2.98;74.43
10832;BME280;5469;48.574;8.768;2023-01-28T12:00:39;95519.59;;;3.34;74.97
10832;BME280;5469;48.574;8.768;2023-01-28T12:03:25;95523.63;;;2.85;75.38
10832;BME280;5469;48.574;8.768;2023-01-28T12:06:16;95521.38;;;2.95;74.66
10832;BME280;5469;48.574;8.768;2023-01-28T12:08:57;95525.44;;;2.91;75.76
10832;BME280;5469;48.574;8.768;2023-01-28T12:11:37;95524.28;;;2.74;75.79
10832;BME280;5469;48.574;8.768;2023-01-28T12:14:41;95521.50;;;3.14;75.14
10832;BME280;5469;48.574;8.768;2023-01-28T12:17:24;95527.50;;;2.76;75.73
10832;BME280;5469;48.574;8.768;2023-01-28T12:20:10;95525.50;;;2.65;76.28
10832;BME280;5469;48.574;8.768;2023-01-28T12:22:55;95533.00;;;2.41;77.71
10832;BME280;5469;48.574;8.768;2023-01-28T12:25:47;95523.88;;;2.77;76.35
10832;BME280;5469;48.574;8.768;2023-01-28T12:28:35;95519.91;;;2.54;76.69
10832;BME280;5469;48.574;8.768;2023-01-28T12:31:29;95531.59;;;2.45;78.15
10832;BME280;5469;48.574;8.768;2023-01-28T12:34:30;95523.97;;;2.24;77.83
10832;BME280;5469;48.574;8.768;2023-01-28T12:37:19;95527.81;;;2.08;78.00
10832;BME280;5469;48.574;8.768;2023-01-28T12:40:05;95523.19;;;2.16;77.69
10832;BME280;5469;48.574;8.768;2023-01-28T12:42:50;95524.38;;;2.27;77.88
10832;BME280;5469;48.574;8.768;2023-01-28T12:45:30;95529.59;;;2.34;76.96
10832;BME280;5469;48.574;8.768;2023-01-28T12:48:11;95535.25;;;1.98;78.35
10832;BME280;5469;48.574;8.768;2023-01-28T12:50:52;95529.59;;;2.07;79.10
10832;BME280;5469;48.574;8.768;2023-01-28T12:53:34;95529.19;;;2.17;79.03
10832;BME280;5469;48.574;8.768;2023-01-28T12:56:16;95531.59;;;1.92;80.55
10832;BME280;5469;48.574;8.768;2023-01-28T12:58:56;95524.75;;;2.44;78.05
10832;BME280;5469;48.574;8.768;2023-01-28T13:01:40;95520.38;;;1.85;79.22
10832;BME280;5469;48.574;8.768;2023-01-28T13:04:21;95523.19;;;2.16;79.29
10832;BME280;5469;48.574;8.768;2023-01-28T13:07:03;95519.56;;;2.04;79.78
10832;BME280;5469;48.574;8.768;2023-01-28T13:09:48;95526.81;;;2.09;79.33
10832;BME280;5469;48.574;8.768;2023-01-28T13:12:26;95518.16;;;2.08;78.70
10832;BME280;5469;48.574;8.768;2023-01-28T13:15:03;95522.34;;;2.36;78.42
10832;BME280;5469;48.574;8.768;2023-01-28T13:17:51;95525.56;;;2.38;77.92
10832;BME280;5469;48.574;8.768;2023-01-28T13:20:38;95521.16;;;2.18;78.92
10832;BME280;5469;48.574;8.768;2023-01-28T13:23:27;95519.31;;;2.26;78.92
10832;BME280;5469;48.574;8.768;2023-01-28T13:26:11;95515.53;;;2.22;78.22
10832;BME280;5469;48.574;8.768;2023-01-28T13:29:17;95514.31;;;2.04;79.63
10832;BME280;5469;48.574;8.768;2023-01-28T13:31:56;95526.78;;;2.02;79.90
10832;BME280;5469;48.574;8.768;2023-01-28T13:34:37;95522.38;;;2.16;79.53
10832;BME280;5469;48.574;8.768;2023-01-28T13:37:20;95526.41;;;2.05;79.77
10832;BME280;5469;48.574;8.768;2023-01-28T13:40:01;95532.41;;;1.99;79.53
10832;BME280;5469;48.574;8.768;2023-01-28T13:42:37;95525.59;;;2.18;79.24
10832;BME280;5469;48.574;8.768;2023-01-28T13:45:25;95525.97;;;2.15;79.25
10832;BME280;5469;48.574;8.768;2023-01-28T13:48:12;95539.66;;;1.64;81.19
10832;BME280;5469;48.574;8.768;2023-01-28T13:50:53;95536.03;;;1.91;81.94
10832;BME280;5469;48.574;8.768;2023-01-28T13:53:35;95537.81;;;1.64;82.11
10832;BME280;5469;48.574;8.768;2023-01-28T13:56:19;95534.41;;;1.84;82.03
10832;BME280;5469;48.574;8.768;2023-01-28T13:59:27;95537.44;;;2.27;81.00
10832;BME280;5469;48.574;8.768;2023-01-28T14:02:42;95539.28;;;2.00;81.69
10832;BME280;5469;48.574;8.768;2023-01-28T14:05:46;95544.50;;;2.13;80.88
10832;BME280;5469;48.574;8.768;2023-01-28T14:08:46;95547.09;;;1.67;82.31
10832;BME280;5469;48.574;8.768;2023-01-28T14:11:47;95550.94;;;2.04;82.26
10832;BME280;5469;48.574;8.768;2023-01-28T14:14:41;95548.91;;;1.93;81.67
10832;BME280;5469;48.574;8.768;2023-01-28T14:17:26;95543.47;;;2.34;80.45
10832;BME280;5469;48.574;8.768;2023-01-28T14:20:16;95558.16;;;2.02;81.66
10832;BME280;5469;48.574;8.768;2023-01-28T14:23:00;95548.50;;;1.96;81.52
10832;BME280;5469;48.574;8.768;2023-01-28T14:25:42;95552.16;;;2.08;81.25
10832;BME280;5469;48.574;8.768;2023-01-28T14:28:34;95561.78;;;1.88;81.78
10832;BME280;5469;48.574;8.768;2023-01-28T14:31:14;95559.38;;;1.93;82.14
10832;BME280;5469;48.574;8.768;2023-01-28T14:33:50;95568.25;;;2.05;81.10